sensor_id;sensor_type;location;lat;lon;timestamp;P1;durP1;ratioP1;P2;durP2;ratioP2
19944;SDS011;10134;50.952;6.930;2023-12-22T00:00:07;1.90;;;0.80;;
19944;SDS011;10134;50.952;6.930;2023-12-22T00:02:36;3.13;;;0.80;;
19944;SDS011;10134;50.952;6.930;2023-12-22T00:05:05;0.75;;;0.60;;
19944;SDS011;10134;50.952;6.930;2023-12-22T00:07:36;3.40;;;0.70;;
19944;SDS011;10134;50.952;6.930;2023-12-22T00:10:04;2.90;;;0.60;;
19944;SDS011;10134;50.952;6.930;2023-12-22T00:12:33;0.83;;;0.53;;
19944;SDS011;10134;50.952;6.930;2023-12-22T00:15:02;1.17;;;0.67;;
19944;SDS011;10134;50.952;6.930;2023-12-22T00:17:33;0.60;;;0.60;;
19944;SDS011;10134;50.952;6.930;2023-12-22T00:20:02;1.77;;;0.83;;
19944;SDS011;10134;50.952;6.930;2023-12-22T00:22:31;3.90;;;0.83;;
19944;SDS011;10134;50.952;6.930;2023-12-22T00:25:01;4.07;;;1.00;;
19944;SDS011;10134;50.952;6.930;2023-12-22T00:27:30;9.07;;;1.37;;
19944;SDS011;10134;50.952;6.930;2023-12-22T00:29:59;4.47;;;1.47;;
19944;SDS011;10134;50.952;6.930;2023-12-22T00:32:27;5.67;;;1.20;;
19944;SDS011;10134;50.952;6.930;2023-12-22T00:34:56;3.53;;;0.90;;
19944;SDS011;10134;50.952;6.930;2023-12-22T00:37:25;4.70;;;0.90;;
19944;SDS011;10134;50.952;6.930;2023-12-22T00:39:54;3.40;;;1.20;;
19944;SDS011;10134;50.952;6.930;2023-12-22T00:42:25;7.80;;;1.27;;
19944;SDS011;10134;50.952;6.930;2023-12-22T00:44:54;1.53;;;1.13;;
19944;SDS011;10134;50.952;6.930;2023-12-22T00:47:23;4.57;;;1.13;;
19944;SDS011;10134;50.952;6.930;2023-12-22T00:49:51;6.47;;;1.57;;
19944;SDS011;10134;50.952;6.930;2023-12-22T00:52:20;3.40;;;1.67;;
19944;SDS011;10134;50.952;6.930;2023-12-22T00:54:49;4.03;;;0.90;;
19944;SDS011;10134;50.952;6.930;2023-12-22T00:57:17;4.70;;;1.40;;
19944;SDS011;10134;50.952;6.930;2023-12-22T00:59:47;9.40;;;1.00;;
19944;SDS011;10134;50.952;6.930;2023-12-22T01:02:16;2.77;;;1.37;;
19944;SDS011;10134;50.952;6.930;2023-12-22T01:04:45;6.87;;;1.27;;
19944;SDS011;10134;50.952;6.930;2023-12-22T01:07:14;8.33;;;1.27;;
19944;SDS011;10134;50.952;6.930;2023-12-22T01:09:43;2.10;;;1.00;;
19944;SDS011;10134;50.952;6.930;2023-12-22T01:12:12;4.57;;;1.97;;
19944;SDS011;10134;50.952;6.930;2023-12-22T01:14:40;4.63;;;1.43;;
19944;SDS011;10134;50.952;6.930;2023-12-22T01:17:13;9.47;;;1.60;;
19944;SDS011;10134;50.952;6.930;2023-12-22T01:19:41;5.97;;;1.20;;
19944;SDS011;10134;50.952;6.930;2023-12-22T01:22:12;7.60;;;1.27;;
19944;SDS011;10134;50.952;6.930;2023-12-22T01:24:41;7.53;;;1.73;;
19944;SDS011;10134;50.952;6.930;2023-12-22T01:27:10;5.30;;;1.17;;
19944;SDS011;10134;50.952;6.930;2023-12-22T01:29:39;6.87;;;1.30;;
19944;SDS011;10134;50.952;6.930;2023-12-22T01:32:08;4.33;;;1.40;;
19944;SDS011;10134;50.952;6.930;2023-12-22T01:34:38;4.00;;;1.23;;
19944;SDS011;10134;50.952;6.930;2023-12-22T01:37:08;3.93;;;1.53;;
19944;SDS011;10134;50.952;6.930;2023-12-22T01:39:37;3.67;;;1.20;;
19944;SDS011;10134;50.952;6.930;2023-12-22T01:42:06;6.03;;;1.37;;
19944;SDS011;10134;50.952;6.930;2023-12-22T01:44:34;6.73;;;1.13;;
19944;SDS011;10134;50.952;6.930;2023-12-22T01:47:03;2.63;;;0.77;;
19944;SDS011;10134;50.952;6.930;2023-12-22T01:49:32;6.40;;;1.23;;
19944;SDS011;10134;50.952;6.930;2023-12-22T01:52:03;4.57;;;1.67;;
19944;SDS011;10134;50.952;6.930;2023-12-22T01:54:32;5.67;;;1.27;;
19944;SDS011;10134;50.952;6.930;2023-12-22T01:57:01;3.30;;;1.33;;
19944;SDS011;10134;50.952;6.930;2023-12-22T01:59:30;5.23;;;1.47;;
19944;SDS011;10134;50.952;6.930;2023-12-22T02:02:01;8.00;;;1.90;;
19944;SDS011;10134;50.952;6.930;2023-12-22T02:04:31;4.33;;;1.17;;
19944;SDS011;10134;50.952;6.930;2023-12-22T02:07:00;3.03;;;1.53;;
19944;SDS011;10134;50.952;6.930;2023-12-22T02:09:31;3.27;;;1.10;;
19944;SDS011;10134;50.952;6.930;2023-12-22T02:12:00;4.83;;;1.93;;
19944;SDS011;10134;50.952;6.930;2023-12-22T02:14:29;3.90;;;1.27;;
19944;SDS011;10134;50.952;6.930;2023-12-22T02:17:03;7.50;;;1.10;;
19944;SDS011;10134;50.952;6.930;2023-12-22T02:19:40;8.97;;;2.00;;
19944;SDS011;10134;50.952;6.930;2023-12-22T02:22:12;4.17;;;1.00;;
19944;SDS011;10134;50.952;6.930;2023-12-22T02:24:42;8.57;;;2.00;;
19944;SDS011;10134;50.952;6.930;2023-12-22T02:27:15;3.15;;;1.35;;
19944;SDS011;10134;50.952;6.930;2023-12-22T02:29:51;4.17;;;1.17;;
19944;SDS011;10134;50.952;6.930;2023-12-22T02:32:27;6.00;;;1.47;;
19944;SDS011;10134;50.952;6.930;2023-12-22T02:34:59;7.30;;;1.20;;
19944;SDS011;10134;50.952;6.930;2023-12-22T02:37:31;9.03;;;2.10;;
19944;SDS011;10134;50.952;6.930;2023-12-22T02:40:04;11.37;;;2.40;;
19944;SDS011;10134;50.952;6.930;2023-12-22T02:42:35;7.37;;;1.63;;
19944;SDS011;10134;50.952;6.930;2023-12-22T02:45:05;7.63;;;1.67;;
19944;SDS011;10134;50.952;6.930;2023-12-22T02:47:34;5.60;;;1.33;;
19944;SDS011;10134;50.952;6.930;2023-12-22T02:50:03;4.47;;;1.83;;
19944;SDS011;10134;50.952;6.930;2023-12-22T02:52:32;8.37;;;1.50;;
19944;SDS011;10134;50.952;6.930;2023-12-22T02:55:01;4.30;;;1.30;;
19944;SDS011;10134;50.952;6.930;2023-12-22T02:57:31;8.37;;;1.60;;
19944;SDS011;10134;50.952;6.930;2023-12-22T02:59:59;6.77;;;1.50;;
19944;SDS011;10134;50.952;6.930;2023-12-22T03:02:28;9.20;;;1.93;;
19944;SDS011;10134;50.952;6.930;2023-12-22T03:04:57;9.27;;;2.00;;
19944;SDS011;10134;50.952;6.930;2023-12-22T03:07:26;5.00;;;1.83;;
19944;SDS011;10134;50.952;6.930;2023-12-22T03:09:54;8.67;;;1.50;;
19944;SDS011;10134;50.952;6.930;2023-12-22T03:12:23;3.47;;;1.33;;
19944;SDS011;10134;50.952;6.930;2023-12-22T03:14:53;7.43;;;2.03;;
19944;SDS011;10134;50.952;6.930;2023-12-22T03:17:22;7.77;;;1.90;;
19944;SDS011;10134;50.952;6.930;2023-12-22T03:19:50;10.23;;;2.50;;
19944;SDS011;10134;50.952;6.930;2023-12-22T03:22:19;7.03;;;2.27;;
19944;SDS011;10134;50.952;6.930;2023-12-22T03:24:48;10.47;;;1.87;;
19944;SDS011;10134;50.952;6.930;2023-12-22T03:27:17;7.70;;;1.70;;
19944;SDS011;10134;50.952;6.930;2023-12-22T03:29:47;7.37;;;1.80;;
19944;SDS011;10134;50.952;6.930;2023-12-22T03:32:17;7.60;;;1.92;;
19944;SDS011;10134;50.952;6.930;2023-12-22T03:34:46;10.95;;;1.70;;
19944;SDS011;10134;50.952;6.930;2023-12-22T03:37:15;9.50;;;2.00;;
19944;SDS011;10134;50.952;6.930;2023-12-22T03:39:43;7.93;;;2.47;;
19944;SDS011;10134;50.952;6.930;2023-12-22T03:42:12;7.97;;;1.87;;
19944;SDS011;10134;50.952;6.930;2023-12-22T03:44:41;11.70;;;2.43;;
19944;SDS011;10134;50.952;6.930;2023-12-22T03:47:10;7.60;;;2.47;;
19944;SDS011;10134;50.952;6.930;2023-12-22T03:49:40;7.68;;;1.92;;
19944;SDS011;10134;50.952;6.930;2023-12-22T03:52:08;10.13;;;2.10;;
19944;SDS011;10134;50.952;6.930;2023-12-22T03:54:37;13.55;;;2.38;;
19944;SDS011;10134;50.952;6.930;2023-12-22T03:57:06;7.63;;;2.20;;
19944;SDS011;10134;50.952;6.930;2023-12-22T03:59:35;14.90;;;2.40;;
19944;SDS011;10134;50.952;6.930;2023-12-22T04:02:04;11.80;;;1.92;;
19944;SDS011;10134;50.952;6.930;2023-12-22T04:04:33;7.77;;;1.97;;
19944;SDS011;10134;50.952;6.930;2023-12-22T04:07:07;12.57;;;2.73;;
19944;SDS011;10134;50.952;6.930;2023-12-22T04:09:36;10.67;;;2.03;;
19944;SDS011;10134;50.952;6.930;2023-12-22T04:12:05;9.52;;;1.90;;
19944;SDS011;10134;50.952;6.930;2023-12-22T04:14:34;7.77;;;1.50;;
19944;SDS011;10134;50.952;6.930;2023-12-22T04:17:03;8.13;;;2.07;;
19944;SDS011;10134;50.952;6.930;2023-12-22T04:19:32;6.87;;;1.87;;
19944;SDS011;10134;50.952;6.930;2023-12-22T04:22:01;7.60;;;1.98;;
19944;SDS011;10134;50.952;6.930;2023-12-22T04:24:31;7.40;;;1.90;;
19944;SDS011;10134;50.952;6.930;2023-12-22T04:27:00;5.70;;;1.88;;
19944;SDS011;10134;50.952;6.930;2023-12-22T04:29:29;13.87;;;1.60;;
19944;SDS011;10134;50.952;6.930;2023-12-22T04:31:57;9.93;;;1.73;;
19944;SDS011;10134;50.952;6.930;2023-12-22T04:34:26;11.85;;;2.22;;
19944;SDS011;10134;50.952;6.930;2023-12-22T04:36:55;6.97;;;1.90;;
19944;SDS011;10134;50.952;6.930;2023-12-22T04:39:23;10.00;;;1.93;;
19944;SDS011;10134;50.952;6.930;2023-12-22T04:41:54;12.05;;;2.05;;
19944;SDS011;10134;50.952;6.930;2023-12-22T04:44:23;10.33;;;2.10;;
19944;SDS011;10134;50.952;6.930;2023-12-22T04:46:52;6.47;;;1.67;;
19944;SDS011;10134;50.952;6.930;2023-12-22T04:49:20;7.45;;;1.73;;
19944;SDS011;10134;50.952;6.930;2023-12-22T04:51:49;14.27;;;2.15;;
19944;SDS011;10134;50.952;6.930;2023-12-22T04:54:18;10.60;;;2.43;;
19944;SDS011;10134;50.952;6.930;2023-12-22T04:56:47;17.00;;;2.55;;
19944;SDS011;10134;50.952;6.930;2023-12-22T04:59:17;8.38;;;1.92;;
19944;SDS011;10134;50.952;6.930;2023-12-22T05:01:45;8.27;;;1.47;;
19944;SDS011;10134;50.952;6.930;2023-12-22T05:04:14;7.85;;;2.22;;
19944;SDS011;10134;50.952;6.930;2023-12-22T05:06:44;6.43;;;1.63;;
19944;SDS011;10134;50.952;6.930;2023-12-22T05:09:13;12.07;;;2.13;;
19944;SDS011;10134;50.952;6.930;2023-12-22T05:11:41;10.13;;;2.10;;
19944;SDS011;10134;50.952;6.930;2023-12-22T05:14:10;22.23;;;2.22;;
19944;SDS011;10134;50.952;6.930;2023-12-22T05:16:40;13.88;;;2.28;;
19944;SDS011;10134;50.952;6.930;2023-12-22T05:19:09;11.38;;;2.47;;
19944;SDS011;10134;50.952;6.930;2023-12-22T05:21:38;11.67;;;2.33;;
19944;SDS011;10134;50.952;6.930;2023-12-22T05:24:06;7.85;;;1.55;;
19944;SDS011;10134;50.952;6.930;2023-12-22T05:26:35;13.63;;;2.55;;
19944;SDS011;10134;50.952;6.930;2023-12-22T05:29:04;7.67;;;2.00;;
19944;SDS011;10134;50.952;6.930;2023-12-22T05:31:35;11.37;;;2.57;;
19944;SDS011;10134;50.952;6.930;2023-12-22T05:34:05;7.87;;;2.00;;
19944;SDS011;10134;50.952;6.930;2023-12-22T05:36:35;10.47;;;2.40;;
19944;SDS011;10134;50.952;6.930;2023-12-22T05:39:03;8.93;;;2.50;;
19944;SDS011;10134;50.952;6.930;2023-12-22T05:41:34;11.47;;;2.87;;
19944;SDS011;10134;50.952;6.930;2023-12-22T05:44:05;9.85;;;2.80;;
19944;SDS011;10134;50.952;6.930;2023-12-22T05:46:35;14.27;;;2.55;;
19944;SDS011;10134;50.952;6.930;2023-12-22T05:49:06;13.50;;;2.60;;
19944;SDS011;10134;50.952;6.930;2023-12-22T05:51:38;10.38;;;2.60;;
19944;SDS011;10134;50.952;6.930;2023-12-22T05:54:07;7.18;;;2.13;;
19944;SDS011;10134;50.952;6.930;2023-12-22T05:56:35;5.57;;;2.15;;
19944;SDS011;10134;50.952;6.930;2023-12-22T05:59:04;6.72;;;2.40;;
19944;SDS011;10134;50.952;6.930;2023-12-22T06:01:33;9.02;;;2.15;;
19944;SDS011;10134;50.952;6.930;2023-12-22T06:04:02;10.00;;;2.22;;
19944;SDS011;10134;50.952;6.930;2023-12-22T06:06:34;8.23;;;2.08;;
19944;SDS011;10134;50.952;6.930;2023-12-22T06:09:05;8.95;;;2.20;;
19944;SDS011;10134;50.952;6.930;2023-12-22T06:11:33;13.75;;;2.58;;
19944;SDS011;10134;50.952;6.930;2023-12-22T06:14:02;11.13;;;2.42;;
19944;SDS011;10134;50.952;6.930;2023-12-22T06:16:31;6.93;;;2.83;;
19944;SDS011;10134;50.952;6.930;2023-12-22T06:18:59;14.50;;;3.25;;
19944;SDS011;10134;50.952;6.930;2023-12-22T06:21:28;7.93;;;2.20;;
19944;SDS011;10134;50.952;6.930;2023-12-22T06:23:58;7.93;;;2.37;;
19944;SDS011;10134;50.952;6.930;2023-12-22T06:26:27;13.32;;;2.38;;
19944;SDS011;10134;50.952;6.930;2023-12-22T06:28:56;11.33;;;3.27;;
19944;SDS011;10134;50.952;6.930;2023-12-22T06:31:25;9.52;;;2.15;;
19944;SDS011;10134;50.952;6.930;2023-12-22T06:33:53;13.18;;;2.40;;
19944;SDS011;10134;50.952;6.930;2023-12-22T06:36:27;12.88;;;3.95;;
19944;SDS011;10134;50.952;6.930;2023-12-22T06:38:59;6.88;;;1.60;;
19944;SDS011;10134;50.952;6.930;2023-12-22T06:41:28;13.50;;;2.10;;
19944;SDS011;10134;50.952;6.930;2023-12-22T06:43:57;11.45;;;2.40;;
19944;SDS011;10134;50.952;6.930;2023-12-22T06:46:28;15.75;;;2.83;;
19944;SDS011;10134;50.952;6.930;2023-12-22T06:48:58;7.60;;;2.00;;
19944;SDS011;10134;50.952;6.930;2023-12-22T06:51:30;10.88;;;2.20;;
19944;SDS011;10134;50.952;6.930;2023-12-22T06:54:03;16.33;;;2.58;;
19944;SDS011;10134;50.952;6.930;2023-12-22T06:56:33;7.10;;;1.50;;
19944;SDS011;10134;50.952;6.930;2023-12-22T06:59:02;4.32;;;1.33;;
19944;SDS011;10134;50.952;6.930;2023-12-22T07:01:31;4.80;;;0.80;;
19944;SDS011;10134;50.952;6.930;2023-12-22T07:04:02;2.55;;;0.80;;
19944;SDS011;10134;50.952;6.930;2023-12-22T07:06:33;6.28;;;1.10;;
19944;SDS011;10134;50.952;6.930;2023-12-22T07:11:59;4.15;;;1.48;;
19944;SDS011;10134;50.952;6.930;2023-12-22T07:14:28;5.88;;;1.63;;
19944;SDS011;10134;50.952;6.930;2023-12-22T07:16:56;4.20;;;1.25;;
19944;SDS011;10134;50.952;6.930;2023-12-22T07:19:28;4.47;;;1.23;;
19944;SDS011;10134;50.952;6.930;2023-12-22T07:21:56;3.75;;;1.13;;
19944;SDS011;10134;50.952;6.930;2023-12-22T07:24:25;5.80;;;1.27;;
19944;SDS011;10134;50.952;6.930;2023-12-22T07:26:56;8.75;;;1.80;;
19944;SDS011;10134;50.952;6.930;2023-12-22T07:29:25;4.50;;;1.42;;
19944;SDS011;10134;50.952;6.930;2023-12-22T07:31:54;8.27;;;2.65;;
19944;SDS011;10134;50.952;6.930;2023-12-22T07:34:23;9.35;;;2.47;;
19944;SDS011;10134;50.952;6.930;2023-12-22T07:36:54;8.00;;;2.60;;
19944;SDS011;10134;50.952;6.930;2023-12-22T07:39:33;9.85;;;2.58;;
19944;SDS011;10134;50.952;6.930;2023-12-22T07:42:05;9.23;;;2.03;;
19944;SDS011;10134;50.952;6.930;2023-12-22T07:44:34;9.70;;;2.50;;
19944;SDS011;10134;50.952;6.930;2023-12-22T07:47:03;13.63;;;3.80;;
19944;SDS011;10134;50.952;6.930;2023-12-22T07:49:34;11.02;;;2.42;;
19944;SDS011;10134;50.952;6.930;2023-12-22T07:52:03;12.57;;;2.72;;
19944;SDS011;10134;50.952;6.930;2023-12-22T07:54:32;13.10;;;2.80;;
19944;SDS011;10134;50.952;6.930;2023-12-22T07:57:01;13.13;;;3.97;;
19944;SDS011;10134;50.952;6.930;2023-12-22T07:59:31;12.95;;;3.75;;
19944;SDS011;10134;50.952;6.930;2023-12-22T08:02:00;13.38;;;3.10;;
19944;SDS011;10134;50.952;6.930;2023-12-22T08:04:30;19.73;;;3.95;;
19944;SDS011;10134;50.952;6.930;2023-12-22T08:07:00;17.52;;;3.58;;
19944;SDS011;10134;50.952;6.930;2023-12-22T08:09:30;19.77;;;3.85;;
19944;SDS011;10134;50.952;6.930;2023-12-22T08:12:00;11.88;;;2.97;;
19944;SDS011;10134;50.952;6.930;2023-12-22T08:14:29;11.02;;;3.33;;
19944;SDS011;10134;50.952;6.930;2023-12-22T08:17:00;14.30;;;3.30;;
19944;SDS011;10134;50.952;6.930;2023-12-22T08:19:29;12.43;;;3.45;;
19944;SDS011;10134;50.952;6.930;2023-12-22T08:21:59;16.17;;;2.75;;
19944;SDS011;10134;50.952;6.930;2023-12-22T08:24:32;18.00;;;3.47;;
19944;SDS011;10134;50.952;6.930;2023-12-22T08:27:01;15.07;;;5.00;;
19944;SDS011;10134;50.952;6.930;2023-12-22T08:29:29;16.75;;;5.43;;
19944;SDS011;10134;50.952;6.930;2023-12-22T08:32:01;20.38;;;6.18;;
19944;SDS011;10134;50.952;6.930;2023-12-22T08:34:31;27.27;;;5.82;;
19944;SDS011;10134;50.952;6.930;2023-12-22T08:37:00;21.38;;;5.38;;
19944;SDS011;10134;50.952;6.930;2023-12-22T08:39:28;17.90;;;4.80;;
19944;SDS011;10134;50.952;6.930;2023-12-22T08:41:58;18.92;;;4.82;;
19944;SDS011;10134;50.952;6.930;2023-12-22T08:44:27;13.48;;;3.83;;
19944;SDS011;10134;50.952;6.930;2023-12-22T08:46:57;18.02;;;5.28;;
19944;SDS011;10134;50.952;6.930;2023-12-22T08:49:26;17.30;;;4.57;;
19944;SDS011;10134;50.952;6.930;2023-12-22T08:51:55;18.25;;;4.18;;
19944;SDS011;10134;50.952;6.930;2023-12-22T08:54:24;21.60;;;4.53;;
19944;SDS011;10134;50.952;6.930;2023-12-22T08:56:53;20.27;;;4.32;;
19944;SDS011;10134;50.952;6.930;2023-12-22T08:59:22;15.73;;;3.42;;
19944;SDS011;10134;50.952;6.930;2023-12-22T09:01:51;12.30;;;3.53;;
19944;SDS011;10134;50.952;6.930;2023-12-22T09:04:21;20.75;;;4.93;;
19944;SDS011;10134;50.952;6.930;2023-12-22T09:06:50;23.63;;;3.95;;
19944;SDS011;10134;50.952;6.930;2023-12-22T09:09:19;11.48;;;4.10;;
19944;SDS011;10134;50.952;6.930;2023-12-22T09:11:50;13.18;;;4.13;;
19944;SDS011;10134;50.952;6.930;2023-12-22T09:14:19;14.23;;;3.60;;
19944;SDS011;10134;50.952;6.930;2023-12-22T09:16:48;18.80;;;3.97;;
19944;SDS011;10134;50.952;6.930;2023-12-22T09:19:17;12.02;;;3.28;;
19944;SDS011;10134;50.952;6.930;2023-12-22T09:21:47;14.25;;;3.70;;
19944;SDS011;10134;50.952;6.930;2023-12-22T09:24:16;18.10;;;4.00;;
19944;SDS011;10134;50.952;6.930;2023-12-22T09:26:44;22.45;;;4.53;;
19944;SDS011;10134;50.952;6.930;2023-12-22T09:29:14;21.30;;;4.57;;
19944;SDS011;10134;50.952;6.930;2023-12-22T09:31:44;20.95;;;4.22;;
19944;SDS011;10134;50.952;6.930;2023-12-22T09:34:12;16.92;;;4.90;;
19944;SDS011;10134;50.952;6.930;2023-12-22T09:36:42;14.55;;;3.83;;
19944;SDS011;10134;50.952;6.930;2023-12-22T09:39:12;15.60;;;3.72;;
19944;SDS011;10134;50.952;6.930;2023-12-22T09:41:44;11.43;;;3.83;;
19944;SDS011;10134;50.952;6.930;2023-12-22T09:44:17;13.73;;;3.15;;
19944;SDS011;10134;50.952;6.930;2023-12-22T09:46:47;8.65;;;3.20;;
19944;SDS011;10134;50.952;6.930;2023-12-22T09:49:17;17.77;;;3.55;;
19944;SDS011;10134;50.952;6.930;2023-12-22T09:51:47;12.88;;;3.25;;
19944;SDS011;10134;50.952;6.930;2023-12-22T09:54:19;13.27;;;3.13;;
19944;SDS011;10134;50.952;6.930;2023-12-22T09:56:48;19.77;;;3.97;;
19944;SDS011;10134;50.952;6.930;2023-12-22T09:59:19;8.55;;;2.72;;
19944;SDS011;10134;50.952;6.930;2023-12-22T10:01:51;12.88;;;2.97;;
19944;SDS011;10134;50.952;6.930;2023-12-22T10:04:22;7.25;;;2.72;;
19944;SDS011;10134;50.952;6.930;2023-12-22T10:06:52;6.88;;;2.53;;
19944;SDS011;10134;50.952;6.930;2023-12-22T10:09:28;11.02;;;2.50;;
19944;SDS011;10134;50.952;6.930;2023-12-22T10:11:58;13.10;;;3.05;;
19944;SDS011;10134;50.952;6.930;2023-12-22T10:14:28;9.45;;;2.65;;
19944;SDS011;10134;50.952;6.930;2023-12-22T10:16:59;8.23;;;1.95;;
19944;SDS011;10134;50.952;6.930;2023-12-22T10:19:27;7.75;;;2.42;;
19944;SDS011;10134;50.952;6.930;2023-12-22T10:21:56;4.25;;;1.40;;
19944;SDS011;10134;50.952;6.930;2023-12-22T10:24:39;3.47;;;1.70;;
19944;SDS011;10134;50.952;6.930;2023-12-22T10:27:10;5.65;;;1.63;;
19944;SDS011;10134;50.952;6.930;2023-12-22T10:29:40;6.22;;;1.50;;
19944;SDS011;10134;50.952;6.930;2023-12-22T10:32:09;7.40;;;1.48;;
19944;SDS011;10134;50.952;6.930;2023-12-22T10:34:38;5.55;;;1.45;;
19944;SDS011;10134;50.952;6.930;2023-12-22T10:37:06;1.55;;;1.23;;
19944;SDS011;10134;50.952;6.930;2023-12-22T10:39:36;5.72;;;1.60;;
19944;SDS011;10134;50.952;6.930;2023-12-22T10:42:06;4.63;;;1.65;;
19944;SDS011;10134;50.952;6.930;2023-12-22T10:44:36;4.03;;;1.88;;
19944;SDS011;10134;50.952;6.930;2023-12-22T10:47:08;8.10;;;1.83;;
19944;SDS011;10134;50.952;6.930;2023-12-22T10:49:38;7.63;;;1.75;;
19944;SDS011;10134;50.952;6.930;2023-12-22T10:52:08;4.93;;;1.60;;
19944;SDS011;10134;50.952;6.930;2023-12-22T10:54:43;4.22;;;1.63;;
19944;SDS011;10134;50.952;6.930;2023-12-22T10:57:16;3.50;;;1.38;;
19944;SDS011;10134;50.952;6.930;2023-12-22T10:59:46;2.88;;;1.52;;
19944;SDS011;10134;50.952;6.930;2023-12-22T11:02:26;3.03;;;1.50;;
19944;SDS011;10134;50.952;6.930;2023-12-22T11:04:57;5.57;;;1.80;;
19944;SDS011;10134;50.952;6.930;2023-12-22T11:07:32;4.70;;;1.52;;
19944;SDS011;10134;50.952;6.930;2023-12-22T11:10:03;5.13;;;2.08;;
19944;SDS011;10134;50.952;6.930;2023-12-22T11:12:36;3.63;;;1.40;;
19944;SDS011;10134;50.952;6.930;2023-12-22T11:15:06;6.43;;;1.77;;
19944;SDS011;10134;50.952;6.930;2023-12-22T11:17:36;2.35;;;1.35;;
19944;SDS011;10134;50.952;6.930;2023-12-22T11:20:08;2.15;;;1.38;;
19944;SDS011;10134;50.952;6.930;2023-12-22T11:22:38;2.63;;;1.15;;
19944;SDS011;10134;50.952;6.930;2023-12-22T11:25:08;4.75;;;1.90;;
19944;SDS011;10134;50.952;6.930;2023-12-22T11:27:43;2.90;;;1.70;;
19944;SDS011;10134;50.952;6.930;2023-12-22T11:30:14;3.58;;;1.95;;
19944;SDS011;10134;50.952;6.930;2023-12-22T11:32:44;3.75;;;1.60;;
19944;SDS011;10134;50.952;6.930;2023-12-22T11:35:13;3.20;;;1.27;;
19944;SDS011;10134;50.952;6.930;2023-12-22T11:37:44;6.20;;;3.28;;
19944;SDS011;10134;50.952;6.930;2023-12-22T11:40:15;3.60;;;2.00;;
19944;SDS011;10134;50.952;6.930;2023-12-22T11:42:45;3.33;;;1.80;;
19944;SDS011;10134;50.952;6.930;2023-12-22T11:45:18;5.15;;;2.10;;
19944;SDS011;10134;50.952;6.930;2023-12-22T11:47:50;2.55;;;1.92;;
19944;SDS011;10134;50.952;6.930;2023-12-22T11:50:27;7.03;;;1.95;;
19944;SDS011;10134;50.952;6.930;2023-12-22T11:55:57;3.47;;;2.00;;
19944;SDS011;10134;50.952;6.930;2023-12-22T11:58:35;3.13;;;1.92;;
19944;SDS011;10134;50.952;6.930;2023-12-22T12:01:05;3.03;;;1.95;;
19944;SDS011;10134;50.952;6.930;2023-12-22T12:03:36;2.20;;;1.63;;
19944;SDS011;10134;50.952;6.930;2023-12-22T12:06:14;3.88;;;2.05;;
19944;SDS011;10134;50.952;6.930;2023-12-22T12:08:44;3.22;;;2.00;;
19944;SDS011;10134;50.952;6.930;2023-12-22T12:11:14;3.72;;;2.10;;
19944;SDS011;10134;50.952;6.930;2023-12-22T12:13:44;4.25;;;1.83;;
19944;SDS011;10134;50.952;6.930;2023-12-22T12:16:15;4.53;;;1.63;;
19944;SDS011;10134;50.952;6.930;2023-12-22T12:18:49;2.58;;;1.95;;
19944;SDS011;10134;50.952;6.930;2023-12-22T12:21:20;3.75;;;2.38;;
19944;SDS011;10134;50.952;6.930;2023-12-22T12:23:49;2.35;;;1.67;;
19944;SDS011;10134;50.952;6.930;2023-12-22T12:26:18;4.95;;;1.77;;
19944;SDS011;10134;50.952;6.930;2023-12-22T12:28:49;11.98;;;3.70;;
19944;SDS011;10134;50.952;6.930;2023-12-22T12:31:18;7.00;;;2.25;;
19944;SDS011;10134;50.952;6.930;2023-12-22T12:33:46;8.38;;;2.20;;
19944;SDS011;10134;50.952;6.930;2023-12-22T12:36:17;3.20;;;1.30;;
19944;SDS011;10134;50.952;6.930;2023-12-22T12:38:48;7.20;;;1.90;;
19944;SDS011;10134;50.952;6.930;2023-12-22T12:41:25;4.05;;;1.85;;
19944;SDS011;10134;50.952;6.930;2023-12-22T12:44:04;2.40;;;1.50;;
19944;SDS011;10134;50.952;6.930;2023-12-22T12:46:34;5.28;;;2.00;;
19944;SDS011;10134;50.952;6.930;2023-12-22T12:49:04;5.50;;;1.70;;
19944;SDS011;10134;50.952;6.930;2023-12-22T12:51:36;6.28;;;1.30;;
19944;SDS011;10134;50.952;6.930;2023-12-22T12:54:06;5.32;;;1.60;;
19944;SDS011;10134;50.952;6.930;2023-12-22T12:56:37;2.70;;;1.88;;
19944;SDS011;10134;50.952;6.930;2023-12-22T12:59:08;5.20;;;1.52;;
19944;SDS011;10134;50.952;6.930;2023-12-22T13:01:38;6.40;;;1.60;;
19944;SDS011;10134;50.952;6.930;2023-12-22T13:04:07;4.95;;;1.83;;
19944;SDS011;10134;50.952;6.930;2023-12-22T13:06:42;2.25;;;1.65;;
19944;SDS011;10134;50.952;6.930;2023-12-22T13:09:11;7.80;;;1.60;;
19944;SDS011;10134;50.952;6.930;2023-12-22T13:11:41;3.75;;;1.67;;
19944;SDS011;10134;50.952;6.930;2023-12-22T13:14:12;3.72;;;1.40;;
19944;SDS011;10134;50.952;6.930;2023-12-22T13:16:49;6.60;;;2.95;;
19944;SDS011;10134;50.952;6.930;2023-12-22T13:19:19;5.88;;;2.72;;
19944;SDS011;10134;50.952;6.930;2023-12-22T13:21:48;3.78;;;1.60;;
19944;SDS011;10134;50.952;6.930;2023-12-22T13:24:17;4.82;;;2.08;;
19944;SDS011;10134;50.952;6.930;2023-12-22T13:26:46;5.63;;;1.63;;
19944;SDS011;10134;50.952;6.930;2023-12-22T13:29:16;5.75;;;1.58;;
19944;SDS011;10134;50.952;6.930;2023-12-22T13:31:44;4.60;;;1.15;;
19944;SDS011;10134;50.952;6.930;2023-12-22T13:34:13;2.85;;;1.35;;
19944;SDS011;10134;50.952;6.930;2023-12-22T13:36:42;2.67;;;1.10;;
19944;SDS011;10134;50.952;6.930;2023-12-22T13:39:11;4.03;;;1.45;;
19944;SDS011;10134;50.952;6.930;2023-12-22T13:41:40;7.53;;;1.80;;
19944;SDS011;10134;50.952;6.930;2023-12-22T13:44:13;4.15;;;1.23;;
19944;SDS011;10134;50.952;6.930;2023-12-22T13:46:43;8.00;;;1.60;;
19944;SDS011;10134;50.952;6.930;2023-12-22T13:49:13;3.70;;;1.33;;
19944;SDS011;10134;50.952;6.930;2023-12-22T13:51:42;3.42;;;1.50;;
19944;SDS011;10134;50.952;6.930;2023-12-22T13:54:11;4.13;;;1.42;;
19944;SDS011;10134;50.952;6.930;2023-12-22T13:56:40;6.20;;;1.40;;
19944;SDS011;10134;50.952;6.930;2023-12-22T13:59:10;3.97;;;1.40;;
19944;SDS011;10134;50.952;6.930;2023-12-22T14:01:39;6.15;;;1.60;;
19944;SDS011;10134;50.952;6.930;2023-12-22T14:04:10;2.88;;;1.50;;
19944;SDS011;10134;50.952;6.930;2023-12-22T14:06:39;6.55;;;2.03;;
19944;SDS011;10134;50.952;6.930;2023-12-22T14:09:09;8.65;;;1.60;;
19944;SDS011;10134;50.952;6.930;2023-12-22T14:11:38;4.85;;;1.95;;
19944;SDS011;10134;50.952;6.930;2023-12-22T14:14:19;6.22;;;2.20;;
19944;SDS011;10134;50.952;6.930;2023-12-22T14:16:48;6.70;;;1.73;;
19944;SDS011;10134;50.952;6.930;2023-12-22T14:19:18;9.18;;;1.85;;
19944;SDS011;10134;50.952;6.930;2023-12-22T14:21:46;2.95;;;1.50;;
19944;SDS011;10134;50.952;6.930;2023-12-22T14:24:15;9.70;;;1.90;;
19944;SDS011;10134;50.952;6.930;2023-12-22T14:26:53;5.05;;;2.20;;
19944;SDS011;10134;50.952;6.930;2023-12-22T14:29:22;7.97;;;1.63;;
19944;SDS011;10134;50.952;6.930;2023-12-22T14:31:51;8.65;;;2.55;;
19944;SDS011;10134;50.952;6.930;2023-12-22T14:34:22;7.72;;;3.30;;
19944;SDS011;10134;50.952;6.930;2023-12-22T14:36:50;2.78;;;1.60;;
19944;SDS011;10134;50.952;6.930;2023-12-22T14:39:19;3.20;;;1.33;;
19944;SDS011;10134;50.952;6.930;2023-12-22T14:41:51;3.75;;;1.58;;
19944;SDS011;10134;50.952;6.930;2023-12-22T14:44:20;3.75;;;1.20;;
19944;SDS011;10134;50.952;6.930;2023-12-22T14:46:51;3.92;;;1.52;;
19944;SDS011;10134;50.952;6.930;2023-12-22T14:49:19;3.00;;;1.33;;
19944;SDS011;10134;50.952;6.930;2023-12-22T14:51:49;5.97;;;1.52;;
19944;SDS011;10134;50.952;6.930;2023-12-22T14:54:20;3.45;;;1.65;;
19944;SDS011;10134;50.952;6.930;2023-12-22T14:56:49;3.67;;;1.38;;
19944;SDS011;10134;50.952;6.930;2023-12-22T14:59:21;4.15;;;1.63;;
19944;SDS011;10134;50.952;6.930;2023-12-22T15:01:49;3.72;;;1.40;;
19944;SDS011;10134;50.952;6.930;2023-12-22T15:04:18;4.85;;;1.30;;